sensor_id;sensor_type;location;lat;lon;timestamp;pressure;altitude;pressure_sealevel;temperature;humidity
64352;BME280;50680;52.626;-8.668;2023-05-11T00:01:43;101509.66;;;10.98;100.00
64352;BME280;50680;52.626;-8.668;2023-05-11T00:04:10;101503.16;;;10.87;100.00
64352;BME280;50680;52.626;-8.668;2023-05-11T00:06:37;101507.00;;;10.80;100.00
64352;BME280;50680;52.626;-8.668;2023-05-11T00:09:04;101508.91;;;10.77;100.00
64352;BME280;50680;52.626;-8.668;2023-05-11T00:11:31;101508.28;;;10.71;100.00
64352;BME280;50680;52.626;-8.668;2023-05-11T00:13:58;101507.59;;;10.68;100.00
64352;BME280;50680;52.626;-8.668;2023-05-11T00:16:24;101514.81;;;10.63;100.00
64352;BME280;50680;52.626;-8.668;2023-05-11T00:18:51;101521.91;;;10.61;100.00
64352;BME280;50680;52.626;-8.668;2023-05-11T00:21:18;101521.91;;;10.61;100.00
64352;BME280;50680;52.626;-8.668;2023-05-11T00:23:45;101529.22;;;10.54;100.00
64352;BME280;50680;52.626;-8.668;2023-05-11T00:26:12;101528.72;;;10.46;100.00
64352;BME280;50680;52.626;-8.668;2023-05-11T00:28:39;101527.41;;;10.35;100.00
64352;BME280;50680;52.626;-8.668;2023-05-11T00:31:06;101525.03;;;10.29;100.00
64352;BME280;50680;52.626;-8.668;2023-05-11T00:33:33;101532.41;;;10.21;100.00
64352;BME280;50680;52.626;-8.668;2023-05-11T00:36:00;101534.56;;;10.11;100.00
64352;BME280;50680;52.626;-8.668;2023-05-11T00:38:28;101542.06;;;10.00;100.00
64352;BME280;50680;52.626;-8.668;2023-05-11T00:40:55;101540.84;;;9.88;100.00
64352;BME280;50680;52.626;-8.668;2023-05-11T00:43:22;101540.38;;;9.78;100.00
64352;BME280;50680;52.626;-8.668;2023-05-11T00:45:49;101537.38;;;9.67;100.00
64352;BME280;50680;52.626;-8.668;2023-05-11T00:48:17;101539.41;;;9.60;100.00
64352;BME280;50680;52.626;-8.668;2023-05-11T00:50:44;101536.13;;;9.55;100.00
64352;BME280;50680;52.626;-8.668;2023-05-11T00:53:12;101538.91;;;9.51;100.00
64352;BME280;50680;52.626;-8.668;2023-05-11T00:55:39;101534.72;;;9.47;100.00
64352;BME280;50680;52.626;-8.668;2023-05-11T00:58:06;101542.72;;;9.44;100.00
64352;BME280;50680;52.626;-8.668;2023-05-11T01:00:33;101546.22;;;9.43;100.00
64352;BME280;50680;52.626;-8.668;2023-05-11T01:03:00;101547.09;;;9.43;100.00
64352;BME280;50680;52.626;-8.668;2023-05-11T01:05:48;101549.50;;;9.48;100.00
64352;BME280;50680;52.626;-8.668;2023-05-11T01:08:35;101542.53;;;9.48;100.00
64352;BME280;50680;52.626;-8.668;2023-05-11T01:13:46;101539.16;;;9.45;100.00
64352;BME280;50680;52.626;-8.668;2023-05-11T01:16:18;101535.03;;;9.39;100.00
64352;BME280;50680;52.626;-8.668;2023-05-11T01:18:54;101546.50;;;9.36;100.00
64352;BME280;50680;52.626;-8.668;2023-05-11T01:21:22;101549.06;;;9.38;100.00
64352;BME280;50680;52.626;-8.668;2023-05-11T01:24:19;101557.75;;;9.38;100.00
64352;BME280;50680;52.626;-8.668;2023-05-11T01:27:02;101559.75;;;9.32;100.00
64352;BME280;50680;52.626;-8.668;2023-05-11T01:32:41;101557.97;;;9.32;100.00
64352;BME280;50680;52.626;-8.668;2023-05-11T01:35:13;101555.38;;;9.32;100.00
64352;BME280;50680;52.626;-8.668;2023-05-11T01:37:52;101565.47;;;9.41;100.00
64352;BME280;50680;52.626;-8.668;2023-05-11T01:40:23;101565.53;;;9.40;100.00
64352;BME280;50680;52.626;-8.668;2023-05-11T01:43:05;101571.63;;;9.40;100.00
64352;BME280;50680;52.626;-8.668;2023-05-11T01:45:36;101569.59;;;9.47;100.00
64352;BME280;50680;52.626;-8.668;2023-05-11T01:48:08;101579.03;;;9.51;100.00
64352;BME280;50680;52.626;-8.668;2023-05-11T01:50:38;101576.09;;;9.59;100.00
64352;BME280;50680;52.626;-8.668;2023-05-11T01:53:06;101583.16;;;9.77;100.00
64352;BME280;50680;52.626;-8.668;2023-05-11T01:55:34;101579.41;;;9.85;100.00
64352;BME280;50680;52.626;-8.668;2023-05-11T01:58:04;101590.25;;;9.96;100.00
64352;BME280;50680;52.626;-8.668;2023-05-11T02:00:32;101589.00;;;10.05;100.00
64352;BME280;50680;52.626;-8.668;2023-05-11T02:03:00;101589.47;;;10.14;100.00
64352;BME280;50680;52.626;-8.668;2023-05-11T02:05:28;101594.38;;;10.22;100.00
64352;BME280;50680;52.626;-8.668;2023-05-11T02:07:57;101602.72;;;10.32;100.00
64352;BME280;50680;52.626;-8.668;2023-05-11T02:10:25;101601.53;;;10.39;100.00
64352;BME280;50680;52.626;-8.668;2023-05-11T02:12:53;101597.94;;;10.42;100.00
64352;BME280;50680;52.626;-8.668;2023-05-11T02:15:21;101592.06;;;10.37;100.00
64352;BME280;50680;52.626;-8.668;2023-05-11T02:17:50;101602.94;;;10.26;100.00
64352;BME280;50680;52.626;-8.668;2023-05-11T02:20:19;101596.28;;;10.19;100.00
64352;BME280;50680;52.626;-8.668;2023-05-11T02:22:46;101597.41;;;10.13;100.00
64352;BME280;50680;52.626;-8.668;2023-05-11T02:25:14;101597.72;;;10.05;100.00
64352;BME280;50680;52.626;-8.668;2023-05-11T02:27:42;101602.19;;;10.03;100.00
64352;BME280;50680;52.626;-8.668;2023-05-11T02:30:09;101604.03;;;10.01;100.00
64352;BME280;50680;52.626;-8.668;2023-05-11T02:32:43;101605.19;;;9.94;100.00
64352;BME280;50680;52.626;-8.668;2023-05-11T02:35:17;101604.47;;;9.90;100.00
64352;BME280;50680;52.626;-8.668;2023-05-11T02:37:47;101605.59;;;9.85;100.00
64352;BME280;50680;52.626;-8.668;2023-05-11T02:40:19;101607.56;;;9.79;100.00
64352;BME280;50680;52.626;-8.668;2023-05-11T02:42:56;101615.25;;;9.83;100.00
64352;BME280;50680;52.626;-8.668;2023-05-11T02:45:26;101609.00;;;9.87;100.00
64352;BME280;50680;52.626;-8.668;2023-05-11T02:47:55;101606.09;;;9.93;100.00
64352;BME280;50680;52.626;-8.668;2023-05-11T02:50:24;101610.19;;;10.00;100.00
64352;BME280;50680;52.626;-8.668;2023-05-11T02:52:57;101618.44;;;10.11;100.00
64352;BME280;50680;52.626;-8.668;2023-05-11T02:55:24;101610.81;;;10.26;100.00
64352;BME280;50680;52.626;-8.668;2023-05-11T02:57:53;101613.50;;;10.45;100.00
64352;BME280;50680;52.626;-8.668;2023-05-11T03:00:20;101616.00;;;10.48;100.00
64352;BME280;50680;52.626;-8.668;2023-05-11T03:02:48;101615.75;;;10.54;100.00
64352;BME280;50680;52.626;-8.668;2023-05-11T03:05:15;101609.63;;;10.53;100.00
64352;BME280;50680;52.626;-8.668;2023-05-11T03:07:42;101611.63;;;10.67;100.00
64352;BME280;50680;52.626;-8.668;2023-05-11T03:10:09;101606.38;;;10.67;100.00
64352;BME280;50680;52.626;-8.668;2023-05-11T03:12:37;101610.81;;;10.46;100.00
64352;BME280;50680;52.626;-8.668;2023-05-11T03:15:04;101608.75;;;10.34;100.00
64352;BME280;50680;52.626;-8.668;2023-05-11T03:17:34;101605.38;;;10.30;100.00
64352;BME280;50680;52.626;-8.668;2023-05-11T03:20:03;101612.59;;;10.25;100.00
64352;BME280;50680;52.626;-8.668;2023-05-11T03:22:30;101601.59;;;10.17;100.00
64352;BME280;50680;52.626;-8.668;2023-05-11T03:24:59;101612.78;;;10.21;100.00
64352;BME280;50680;52.626;-8.668;2023-05-11T03:27:28;101603.16;;;10.21;100.00
64352;BME280;50680;52.626;-8.668;2023-05-11T03:29:55;101609.50;;;10.15;100.00
64352;BME280;50680;52.626;-8.668;2023-05-11T03:32:23;101615.16;;;10.06;100.00
64352;BME280;50680;52.626;-8.668;2023-05-11T03:34:51;101601.28;;;10.04;100.00
64352;BME280;50680;52.626;-8.668;2023-05-11T03:37:18;101610.69;;;10.08;100.00
64352;BME280;50680;52.626;-8.668;2023-05-11T03:39:51;101615.88;;;10.10;100.00
64352;BME280;50680;52.626;-8.668;2023-05-11T03:42:21;101618.50;;;10.10;100.00
64352;BME280;50680;52.626;-8.668;2023-05-11T03:44:49;101614.75;;;10.15;100.00
64352;BME280;50680;52.626;-8.668;2023-05-11T03:47:19;101615.28;;;10.24;100.00
64352;BME280;50680;52.626;-8.668;2023-05-11T03:49:47;101620.94;;;10.35;100.00
64352;BME280;50680;52.626;-8.668;2023-05-11T03:52:15;101617.84;;;10.46;100.00
64352;BME280;50680;52.626;-8.668;2023-05-11T03:54:42;101609.63;;;10.53;100.00
64352;BME280;50680;52.626;-8.668;2023-05-11T03:57:09;101616.16;;;10.64;100.00
64352;BME280;50680;52.626;-8.668;2023-05-11T03:59:39;101615.06;;;10.69;100.00
64352;BME280;50680;52.626;-8.668;2023-05-11T04:02:07;101607.91;;;10.73;100.00
64352;BME280;50680;52.626;-8.668;2023-05-11T04:04:34;101612.34;;;10.71;100.00
64352;BME280;50680;52.626;-8.668;2023-05-11T04:07:01;101614.06;;;10.72;100.00
64352;BME280;50680;52.626;-8.668;2023-05-11T04:09:28;101608.66;;;10.75;100.00
64352;BME280;50680;52.626;-8.668;2023-05-11T04:11:54;101619.03;;;10.78;100.00
64352;BME280;50680;52.626;-8.668;2023-05-11T04:14:21;101617.88;;;10.84;100.00
64352;BME280;50680;52.626;-8.668;2023-05-11T04:16:48;101625.47;;;10.90;100.00
64352;BME280;50680;52.626;-8.668;2023-05-11T04:19:15;101626.97;;;10.96;100.00
64352;BME280;50680;52.626;-8.668;2023-05-11T04:21:42;101626.53;;;11.05;100.00
64352;BME280;50680;52.626;-8.668;2023-05-11T04:24:09;101634.47;;;11.22;100.00
64352;BME280;50680;52.626;-8.668;2023-05-11T04:26:35;101621.72;;;11.15;100.00
64352;BME280;50680;52.626;-8.668;2023-05-11T04:29:02;101635.09;;;11.27;100.00
64352;BME280;50680;52.626;-8.668;2023-05-11T04:31:30;101623.53;;;11.32;100.00
64352;BME280;50680;52.626;-8.668;2023-05-11T04:33:57;101618.38;;;11.30;100.00
64352;BME280;50680;52.626;-8.668;2023-05-11T04:36:24;101621.44;;;11.38;100.00
64352;BME280;50680;52.626;-8.668;2023-05-11T04:38:51;101619.53;;;11.42;100.00
64352;BME280;50680;52.626;-8.668;2023-05-11T04:41:18;101624.63;;;11.45;100.00
64352;BME280;50680;52.626;-8.668;2023-05-11T04:43:46;101628.03;;;11.47;100.00
64352;BME280;50680;52.626;-8.668;2023-05-11T04:46:13;101631.38;;;11.51;100.00
64352;BME280;50680;52.626;-8.668;2023-05-11T04:48:40;101638.25;;;11.53;100.00
64352;BME280;50680;52.626;-8.668;2023-05-11T04:51:08;101634.72;;;11.54;100.00
64352;BME280;50680;52.626;-8.668;2023-05-11T04:53:35;101636.25;;;11.58;100.00
64352;BME280;50680;52.626;-8.668;2023-05-11T04:56:02;101648.28;;;11.62;100.00
64352;BME280;50680;52.626;-8.668;2023-05-11T04:58:29;101644.69;;;11.65;100.00
64352;BME280;50680;52.626;-8.668;2023-05-11T05:00:55;101644.44;;;11.70;100.00
64352;BME280;50680;52.626;-8.668;2023-05-11T05:03:22;101645.38;;;11.69;100.00
64352;BME280;50680;52.626;-8.668;2023-05-11T05:05:49;101654.94;;;11.70;100.00
64352;BME280;50680;52.626;-8.668;2023-05-11T05:08:16;101659.06;;;11.75;100.00
64352;BME280;50680;52.626;-8.668;2023-05-11T05:10:44;101660.06;;;11.73;100.00
64352;BME280;50680;52.626;-8.668;2023-05-11T05:13:12;101665.31;;;11.73;100.00
64352;BME280;50680;52.626;-8.668;2023-05-11T05:15:39;101656.38;;;11.77;100.00
64352;BME280;50680;52.626;-8.668;2023-05-11T05:18:06;101651.69;;;11.83;100.00
64352;BME280;50680;52.626;-8.668;2023-05-11T05:20:33;101655.91;;;11.86;100.00
64352;BME280;50680;52.626;-8.668;2023-05-11T05:23:01;101654.13;;;11.86;100.00
64352;BME280;50680;52.626;-8.668;2023-05-11T05:25:27;101655.91;;;11.86;100.00
64352;BME280;50680;52.626;-8.668;2023-05-11T05:27:55;101653.22;;;11.88;100.00
64352;BME280;50680;52.626;-8.668;2023-05-11T05:30:21;101649.63;;;11.89;100.00
64352;BME280;50680;52.626;-8.668;2023-05-11T05:32:48;101654.88;;;11.89;100.00
64352;BME280;50680;52.626;-8.668;2023-05-11T05:35:16;101652.19;;;11.90;100.00
64352;BME280;50680;52.626;-8.668;2023-05-11T05:37:43;101660.03;;;11.92;100.00
64352;BME280;50680;52.626;-8.668;2023-05-11T05:40:10;101657.44;;;11.90;100.00
64352;BME280;50680;52.626;-8.668;2023-05-11T05:42:37;101657.44;;;11.90;100.00
64352;BME280;50680;52.626;-8.668;2023-05-11T05:45:04;101659.19;;;11.91;100.00
64352;BME280;50680;52.626;-8.668;2023-05-11T05:47:31;101663.13;;;12.00;100.00
64352;BME280;50680;52.626;-8.668;2023-05-11T05:49:58;101664.66;;;12.04;100.00
64352;BME280;50680;52.626;-8.668;2023-05-11T05:52:25;101672.34;;;12.09;100.00
64352;BME280;50680;52.626;-8.668;2023-05-11T05:54:51;101671.84;;;12.18;100.00
64352;BME280;50680;52.626;-8.668;2023-05-11T05:57:18;101672.25;;;12.28;100.00
64352;BME280;50680;52.626;-8.668;2023-05-11T05:59:45;101672.66;;;12.37;100.00
64352;BME280;50680;52.626;-8.668;2023-05-11T06:02:12;101679.13;;;12.48;100.00
64352;BME280;50680;52.626;-8.668;2023-05-11T06:04:39;101682.53;;;12.50;100.00
64352;BME280;50680;52.626;-8.668;2023-05-11T06:07:07;101686.75;;;12.52;100.00
64352;BME280;50680;52.626;-8.668;2023-05-11T06:09:34;101684.84;;;12.38;100.00
64352;BME280;50680;52.626;-8.668;2023-05-11T06:12:05;101681.31;;;12.39;100.00
64352;BME280;50680;52.626;-8.668;2023-05-11T06:14:31;101684.53;;;12.45;100.00
64352;BME280;50680;52.626;-8.668;2023-05-11T06:16:58;101684.69;;;12.41;100.00
64352;BME280;50680;52.626;-8.668;2023-05-11T06:19:25;101681.94;;;12.27;100.00
64352;BME280;50680;52.626;-8.668;2023-05-11T06:21:52;101686.09;;;12.31;100.00
64352;BME280;50680;52.626;-8.668;2023-05-11T06:24:18;101694.38;;;12.41;100.00
64352;BME280;50680;52.626;-8.668;2023-05-11T06:26:45;101696.59;;;12.49;100.00
64352;BME280;50680;52.626;-8.668;2023-05-11T06:29:12;101698.84;;;12.56;100.00
64352;BME280;50680;52.626;-8.668;2023-05-11T06:31:39;101682.13;;;12.40;100.00
64352;BME280;50680;52.626;-8.668;2023-05-11T06:34:06;101700.53;;;12.57;100.00
64352;BME280;50680;52.626;-8.668;2023-05-11T06:36:34;101701.81;;;12.66;100.00
64352;BME280;50680;52.626;-8.668;2023-05-11T06:39:01;101704.31;;;12.69;100.00
64352;BME280;50680;52.626;-8.668;2023-05-11T06:41:28;101709.56;;;12.69;100.00
64352;BME280;50680;52.626;-8.668;2023-05-11T06:43:55;101714.69;;;12.72;100.00
64352;BME280;50680;52.626;-8.668;2023-05-11T06:46:22;101710.63;;;12.83;100.00
64352;BME280;50680;52.626;-8.668;2023-05-11T06:48:49;101713.88;;;12.88;100.00
64352;BME280;50680;52.626;-8.668;2023-05-11T06:51:16;101710.28;;;12.89;100.00
64352;BME280;50680;52.626;-8.668;2023-05-11T06:53:43;101713.09;;;12.86;100.00
64352;BME280;50680;52.626;-8.668;2023-05-11T06:56:10;101707.25;;;12.81;100.00
64352;BME280;50680;52.626;-8.668;2023-05-11T06:58:37;101697.03;;;12.74;100.00
64352;BME280;50680;52.626;-8.668;2023-05-11T07:01:04;101713.72;;;12.91;100.00
64352;BME280;50680;52.626;-8.668;2023-05-11T07:03:33;101715.41;;;13.08;100.00
64352;BME280;50680;52.626;-8.668;2023-05-11T07:06:01;101715.13;;;13.30;100.00
64352;BME280;50680;52.626;-8.668;2023-05-11T07:08:28;101714.47;;;13.42;100.00
64352;BME280;50680;52.626;-8.668;2023-05-11T07:10:54;101718.38;;;13.35;100.00
64352;BME280;50680;52.626;-8.668;2023-05-11T07:13:21;101722.88;;;13.33;100.00
64352;BME280;50680;52.626;-8.668;2023-05-11T07:15:48;101728.78;;;13.21;100.00
64352;BME280;50680;52.626;-8.668;2023-05-11T07:18:15;101721.13;;;13.16;100.00
64352;BME280;50680;52.626;-8.668;2023-05-11T07:20:43;101725.56;;;13.15;100.00
64352;BME280;50680;52.626;-8.668;2023-05-11T07:23:12;101728.34;;;13.12;100.00
64352;BME280;50680;52.626;-8.668;2023-05-11T07:25:39;101714.59;;;13.07;100.00
64352;BME280;50680;52.626;-8.668;2023-05-11T07:28:05;101731.75;;;13.30;100.00
64352;BME280;50680;52.626;-8.668;2023-05-11T07:30:32;101725.69;;;13.46;100.00
64352;BME280;50680;52.626;-8.668;2023-05-11T07:32:59;101730.38;;;13.57;100.00
64352;BME280;50680;52.626;-8.668;2023-05-11T07:35:26;101736.56;;;13.56;100.00
64352;BME280;50680;52.626;-8.668;2023-05-11T07:37:53;101731.31;;;13.56;100.00
64352;BME280;50680;52.626;-8.668;2023-05-11T07:40:19;101737.00;;;13.64;100.00
64352;BME280;50680;52.626;-8.668;2023-05-11T07:42:47;101742.00;;;13.68;100.00
64352;BME280;50680;52.626;-8.668;2023-05-11T07:45:14;101733.41;;;13.81;100.00
64352;BME280;50680;52.626;-8.668;2023-05-11T07:47:41;101732.63;;;13.95;100.00
64352;BME280;50680;52.626;-8.668;2023-05-11T07:50:08;101731.94;;;14.07;100.00
64352;BME280;50680;52.626;-8.668;2023-05-11T07:52:35;101728.72;;;14.02;100.00
64352;BME280;50680;52.626;-8.668;2023-05-11T07:55:02;101734.81;;;14.02;100.00
64352;BME280;50680;52.626;-8.668;2023-05-11T07:57:28;101735.84;;;14.00;100.00
64352;BME280;50680;52.626;-8.668;2023-05-11T07:59:55;101740.25;;;13.99;100.00
64352;BME280;50680;52.626;-8.668;2023-05-11T08:02:22;101743.66;;;14.01;100.00
64352;BME280;50680;52.626;-8.668;2023-05-11T08:04:49;101748.72;;;13.90;100.00
64352;BME280;50680;52.626;-8.668;2023-05-11T08:07:16;101743.94;;;13.97;100.00
64352;BME280;50680;52.626;-8.668;2023-05-11T08:09:43;101749.13;;;13.82;100.00
64352;BME280;50680;52.626;-8.668;2023-05-11T08:12:09;101744.22;;;13.76;100.00
64352;BME280;50680;52.626;-8.668;2023-05-11T08:14:36;101735.19;;;13.80;100.00
64352;BME280;50680;52.626;-8.668;2023-05-11T08:17:03;101748.38;;;13.80;100.00
64352;BME280;50680;52.626;-8.668;2023-05-11T08:19:31;101743.19;;;13.79;100.00
64352;BME280;50680;52.626;-8.668;2023-05-11T08:21:59;101747.44;;;13.81;100.00
64352;BME280;50680;52.626;-8.668;2023-05-11T08:24:26;101750.25;;;13.78;100.00
64352;BME280;50680;52.626;-8.668;2023-05-11T08:26:53;101751.09;;;13.79;100.00
64352;BME280;50680;52.626;-8.668;2023-05-11T08:29:19;101754.75;;;13.92;100.00
64352;BME280;50680;52.626;-8.668;2023-05-11T08:31:48;101750.38;;;13.91;100.00
64352;BME280;50680;52.626;-8.668;2023-05-11T08:34:15;101752.59;;;13.99;100.00
64352;BME280;50680;52.626;-8.668;2023-05-11T08:36:45;101747.16;;;14.02;100.00
64352;BME280;50680;52.626;-8.668;2023-05-11T08:39:12;101751.66;;;14.00;100.00
64352;BME280;50680;52.626;-8.668;2023-05-11T08:41:39;101763.75;;;14.04;100.00
64352;BME280;50680;52.626;-8.668;2023-05-11T08:44:06;101759.09;;;14.23;100.00
64352;BME280;50680;52.626;-8.668;2023-05-11T08:46:37;101752.44;;;14.02;100.00
64352;BME280;50680;52.626;-8.668;2023-05-11T08:49:06;101770.09;;;14.16;100.00
64352;BME280;50680;52.626;-8.668;2023-05-11T08:51:34;101765.44;;;14.35;100.00
64352;BME280;50680;52.626;-8.668;2023-05-11T08:54:01;101757.91;;;14.59;100.00
64352;BME280;50680;52.626;-8.668;2023-05-11T08:56:30;101765.75;;;15.33;100.00
64352;BME280;50680;52.626;-8.668;2023-05-11T08:58:57;101756.66;;;16.20;100.00
64352;BME280;50680;52.626;-8.668;2023-05-11T09:01:27;101762.13;;;16.57;100.00
64352;BME280;50680;52.626;-8.668;2023-05-11T09:03:55;101750.59;;;16.97;100.00
64352;BME280;50680;52.626;-8.668;2023-05-11T09:06:23;101744.56;;;17.07;100.00
64352;BME280;50680;52.626;-8.668;2023-05-11T09:08:51;101746.91;;;16.86;100.00
64352;BME280;50680;52.626;-8.668;2023-05-11T09:11:18;101761.41;;;16.94;100.00
64352;BME280;50680;52.626;-8.668;2023-05-11T09:13:46;101751.63;;;16.81;100.00
64352;BME280;50680;52.626;-8.668;2023-05-11T09:16:13;101742.25;;;16.11;100.00
64352;BME280;50680;52.626;-8.668;2023-05-11T09:19:01;101744.34;;;16.06;100.00
64352;BME280;50680;52.626;-8.668;2023-05-11T09:21:29;101745.88;;;16.23;100.00
64352;BME280;50680;52.626;-8.668;2023-05-11T09:23:57;101740.59;;;16.36;100.00
64352;BME280;50680;52.626;-8.668;2023-05-11T09:26:27;101750.06;;;16.53;100.00
64352;BME280;50680;52.626;-8.668;2023-05-11T09:28:56;101734.38;;;16.50;100.00
64352;BME280;50680;52.626;-8.668;2023-05-11T09:31:42;101744.84;;;16.39;100.00
64352;BME280;50680;52.626;-8.668;2023-05-11T09:34:20;101739.81;;;17.00;100.00
64352;BME280;50680;52.626;-8.668;2023-05-11T09:36:51;101747.38;;;17.67;100.00
64352;BME280;50680;52.626;-8.668;2023-05-11T09:39:34;101747.00;;;17.84;100.00
64352;BME280;50680;52.626;-8.668;2023-05-11T09:42:21;101751.84;;;17.29;100.00
64352;BME280;50680;52.626;-8.668;2023-05-11T09:44:48;101752.88;;;17.40;100.00
64352;BME280;50680;52.626;-8.668;2023-05-11T09:47:17;101745.91;;;16.74;100.00
64352;BME280;50680;52.626;-8.668;2023-05-11T09:49:45;101753.78;;;16.63;100.00
64352;BME280;50680;52.626;-8.668;2023-05-11T09:52:15;101743.59;;;16.57;100.00
64352;BME280;50680;52.626;-8.668;2023-05-11T09:54:42;101745.34;;;16.31;100.00
64352;BME280;50680;52.626;-8.668;2023-05-11T09:57:29;101753.69;;;15.85;100.00
64352;BME280;50680;52.626;-8.668;2023-05-11T09:59:58;101743.13;;;16.25;100.00
64352;BME280;50680;52.626;-8.668;2023-05-11T10:02:29;101735.09;;;16.39;100.00
64352;BME280;50680;52.626;-8.668;2023-05-11T10:05:00;101751.22;;;16.62;100.00
64352;BME280;50680;52.626;-8.668;2023-05-11T10:07:36;101744.78;;;16.79;100.00
64352;BME280;50680;52.626;-8.668;2023-05-11T10:10:05;101745.94;;;16.62;100.00
64352;BME280;50680;52.626;-8.668;2023-05-11T10:12:33;101751.47;;;16.84;100.00
64352;BME280;50680;52.626;-8.668;2023-05-11T10:15:08;101758.03;;;16.91;100.00
64352;BME280;50680;52.626;-8.668;2023-05-11T10:17:35;101738.63;;;16.52;100.00
64352;BME280;50680;52.626;-8.668;2023-05-11T10:20:04;101753.97;;;16.47;100.00
64352;BME280;50680;52.626;-8.668;2023-05-11T10:22:31;101748.69;;;16.60;100.00
64352;BME280;50680;52.626;-8.668;2023-05-11T10:24:59;101755.59;;;16.88;100.00
64352;BME280;50680;52.626;-8.668;2023-05-11T10:27:27;101754.91;;;17.36;100.00
64352;BME280;50680;52.626;-8.668;2023-05-11T10:29:55;101742.66;;;16.97;100.00
64352;BME280;50680;52.626;-8.668;2023-05-11T10:32:24;101753.03;;;16.61;100.00
64352;BME280;50680;52.626;-8.668;2023-05-11T10:34:51;101746.28;;;16.17;100.00
64352;BME280;50680;52.626;-8.668;2023-05-11T10:37:18;101745.09;;;15.81;100.00
64352;BME280;50680;52.626;-8.668;2023-05-11T10:39:47;101736.34;;;15.66;100.00
64352;BME280;50680;52.626;-8.668;2023-05-11T11:01:45;101754.19;;;16.04;100.00
64352;BME280;50680;52.626;-8.668;2023-05-11T11:04:12;101749.75;;;16.17;100.00
64352;BME280;50680;52.626;-8.668;2023-05-11T11:06:41;101747.94;;;16.05;100.00
64352;BME280;50680;52.626;-8.668;2023-05-11T11:09:10;101760.22;;;16.06;100.00
64352;BME280;50680;52.626;-8.668;2023-05-11T11:11:43;101748.75;;;15.93;100.00
64352;BME280;50680;52.626;-8.668;2023-05-11T11:14:17;101765.03;;;15.87;100.00
64352;BME280;50680;52.626;-8.668;2023-05-11T11:19:42;101760.03;;;15.68;100.00
64352;BME280;50680;52.626;-8.668;2023-05-11T11:25:08;101765.69;;;15.90;100.00
64352;BME280;50680;52.626;-8.668;2023-05-11T11:30:15;101768.28;;;16.17;100.00
64352;BME280;50680;52.626;-8.668;2023-05-11T11:32:47;101765.72;;;16.03;100.00
64352;BME280;50680;52.626;-8.668;2023-05-11T11:38:09;101765.59;;;16.45;100.00
64352;BME280;50680;52.626;-8.668;2023-05-11T11:40:42;101768.59;;;16.53;100.00
64352;BME280;50680;52.626;-8.668;2023-05-11T11:43:16;101760.56;;;16.80;100.00
64352;BME280;50680;52.626;-8.668;2023-05-11T11:45:55;101763.84;;;16.97;100.00
64352;BME280;50680;52.626;-8.668;2023-05-11T11:51:04;101760.25;;;17.60;100.00
64352;BME280;50680;52.626;-8.668;2023-05-11T11:56:05;101763.63;;;17.25;100.00
64352;BME280;50680;52.626;-8.668;2023-05-11T12:01:15;101761.69;;;17.27;100.00
64352;BME280;50680;52.626;-8.668;2023-05-11T12:03:42;101756.31;;;17.90;100.00
64352;BME280;50680;52.626;-8.668;2023-05-11T12:06:10;101762.47;;;17.91;100.00
64352;BME280;50680;52.626;-8.668;2023-05-11T12:08:39;101749.13;;;18.28;100.00
64352;BME280;50680;52.626;-8.668;2023-05-11T12:11:06;101744.13;;;18.12;100.00
64352;BME280;50680;52.626;-8.668;2023-05-11T12:13:34;101759.16;;;17.63;100.00
64352;BME280;50680;52.626;-8.668;2023-05-11T12:16:08;101763.19;;;17.06;100.00
64352;BME280;50680;52.626;-8.668;2023-05-11T12:18:35;101737.94;;;16.49;100.00
64352;BME280;50680;52.626;-8.668;2023-05-11T12:21:03;101762.22;;;16.03;100.00
64352;BME280;50680;52.626;-8.668;2023-05-11T12:23:30;101766.22;;;16.48;100.00
64352;BME280;50680;52.626;-8.668;2023-05-11T12:26:02;101769.38;;;17.06;100.00
64352;BME280;50680;52.626;-8.668;2023-05-11T12:28:28;101766.66;;;17.45;100.00
64352;BME280;50680;52.626;-8.668;2023-05-11T12:30:56;101763.56;;;17.88;100.00
64352;BME280;50680;52.626;-8.668;2023-05-11T12:33:25;101760.63;;;18.39;100.00
64352;BME280;50680;52.626;-8.668;2023-05-11T12:35:55;101753.16;;;18.56;100.00
64352;BME280;50680;52.626;-8.668;2023-05-11T12:38:21;101759.34;;;18.21;100.00
64352;BME280;50680;52.626;-8.668;2023-05-11T12:40:52;101750.88;;;17.67;100.00
64352;BME280;50680;52.626;-8.668;2023-05-11T12:43:20;101747.22;;;17.81;100.00
64352;BME280;50680;52.626;-8.668;2023-05-11T12:45:48;101743.84;;;18.03;100.00
64352;BME280;50680;52.626;-8.668;2023-05-11T12:48:15;101741.28;;;17.78;100.00
64352;BME280;50680;52.626;-8.668;2023-05-11T12:50:45;101757.28;;;17.52;100.00
64352;BME280;50680;52.626;-8.668;2023-05-11T12:53:18;101755.50;;;17.03;100.00
64352;BME280;50680;52.626;-8.668;2023-05-11T12:55:57;101755.00;;;16.32;100.00
64352;BME280;50680;52.626;-8.668;2023-05-11T12:58:24;101747.59;;;16.50;100.00
64352;BME280;50680;52.626;-8.668;2023-05-11T13:00:53;101750.44;;;16.34;100.00
64352;BME280;50680;52.626;-8.668;2023-05-11T13:03:24;101747.72;;;15.95;100.00
64352;BME280;50680;52.626;-8.668;2023-05-11T13:05:51;101744.09;;;15.55;100.00
64352;BME280;50680;52.626;-8.668;2023-05-11T13:08:29;101740.75;;;15.24;100.00
64352;BME280;50680;52.626;-8.668;2023-05-11T13:11:18;101759.06;;;14.84;100.00
64352;BME280;50680;52.626;-8.668;2023-05-11T13:13:46;101753.59;;;14.87;100.00
64352;BME280;50680;52.626;-8.668;2023-05-11T13:16:26;101764.84;;;15.19;100.00
64352;BME280;50680;52.626;-8.668;2023-05-11T13:19:01;101758.28;;;15.39;100.00
64352;BME280;50680;52.626;-8.668;2023-05-11T13:21:29;101752.22;;;15.66;100.00
64352;BME280;50680;52.626;-8.668;2023-05-11T13:23:59;101745.41;;;15.76;100.00